General Aviation Weather

Text Reports

Enter one or more of the following location identifiers separated by a space:

Zip Code, Four-Character ICAO or Three-Character IATA airport codes.

METAR - Aviation Routine Weather Report
KLKV - Lakeview AWS, Oregon
Updated at 6:15 PM GMT on August 04, 2015 (11:15 AM PDT):
METAR KLKV 041815Z AUTO 22004KT 10SM CLR 26/07 A3009 RMK AO1
TAF - Terminal Area Forecast
KLKV - Lakeview AWS, Oregon
Updated at 6:15 PM GMT on August 04, 2015 (11:15 AM PDT):
No TAF is currently available for this location.
Decoded:
No decoded TAF is available.
PIREP - Pilot Weather Report
KLKV - Lakeview AWS, Oregon
Updated at 6:15 PM GMT on August 04, 2015 (11:15 AM PDT):
No PIREP is currently available for this location.
AIRMET - Airmens Meteorological Information
KLKV - Lakeview AWS, Oregon
Updated at 6:15 PM GMT on August 04, 2015 (11:15 AM PDT):
No AIRMET is currently available for this location.
SIGMET - Significant Meteorological Information
KLKV - Lakeview AWS, Oregon
Updated at 6:15 PM GMT on August 04, 2015 (11:15 AM PDT):
No SIGMET is currently available for this location.
NOTAM - Notice to Airmen
KLKV - Lakeview AWS, Oregon
Updated at 6:15 PM GMT on August 04, 2015 (11:15 AM PDT):
No NOTAM is currently available for this location.
Forecast Area
KLKV - Lakeview AWS, Oregon
Updated at 6:15 PM GMT on August 04, 2015 (11:15 AM PDT):
No NOTAM is currently available for this location.
Aviation Weather Maps